Time;durP1;ratioP1;P1;durP2;ratioP2;P2;SDS_P1;SDS_P2;PMS_P1;PMS_P2;Temp;Humidity;BMP_temperature;BMP_pressure;BME280_temperature;BME280_humidity;BME280_pressure;Samples;Min_cycle;Max_cycle;Signal;HPM_P1;HPM_P2
2021/12/28 00:00:59;;;;;;;19.00;14.13;;;6.00;92.70;;;;;;5125902;27;20055;-66
2021/12/28 00:03:25;;;;;;;20.05;14.50;;;6.00;92.70;;;;;;5118087;27;20507;-66
2021/12/28 00:05:51;;;;;;;20.35;15.13;;;6.00;93.00;;;;;;5112339;27;20051;-66
2021/12/28 00:08:19;;;;;;;20.60;15.77;;;6.00;93.20;;;;;;5128254;27;20054;-66
2021/12/28 00:10:45;;;;;;;18.63;14.98;;;6.10;93.30;;;;;;5119557;27;20051;-66
2021/12/28 00:13:11;;;;;;;21.33;16.35;;;6.10;93.40;;;;;;5121976;27;20031;-66
2021/12/28 00:18:20;;;;;;;24.75;16.30;;;6.20;93.30;;;;;;5116575;27;20444;-66
2021/12/28 00:20:52;;;;;;;24.20;18.40;;;6.20;93.30;;;;;;5113771;28;20139;-66
2021/12/28 00:23:21;;;;;;;24.90;16.75;;;6.30;93.40;;;;;;5113910;27;20036;-66
2021/12/28 00:25:48;;;;;;;27.40;17.33;;;6.30;93.50;;;;;;5121917;27;20085;-66
2021/12/28 00:28:15;;;;;;;29.92;19.25;;;6.30;93.50;;;;;;5109937;28;20123;-66
2021/12/28 00:30:41;;;;;;;25.70;18.65;;;6.30;93.60;;;;;;5091319;28;20074;-66
2021/12/28 00:33:07;;;;;;;34.38;18.20;;;6.40;93.60;;;;;;5109636;28;20027;-67
2021/12/28 00:35:36;;;;;;;28.02;18.75;;;6.40;93.70;;;;;;5120832;28;20045;-66
2021/12/28 00:38:04;;;;;;;35.20;18.15;;;6.40;93.70;;;;;;5129925;28;20047;-66
2021/12/28 00:40:31;;;;;;;29.42;19.10;;;6.40;94.00;;;;;;5111586;28;20043;-66
2021/12/28 00:42:57;;;;;;;33.63;17.63;;;6.40;93.90;;;;;;5121018;28;20127;-66
2021/12/28 00:45:24;;;;;;;27.55;18.65;;;6.40;93.90;;;;;;5109576;28;20036;-66
2021/12/28 00:47:50;;;;;;;28.27;17.92;;;6.40;93.90;;;;;;5109504;28;20051;-66
2021/12/28 00:50:17;;;;;;;30.45;18.85;;;6.50;93.90;;;;;;5091399;28;20047;-67
2021/12/28 00:52:44;;;;;;;26.10;18.23;;;6.50;93.90;;;;;;5088024;28;20077;-66
2021/12/28 00:55:12;;;;;;;31.42;18.65;;;6.40;93.90;;;;;;5109327;28;20054;-66
2021/12/28 00:57:38;;;;;;;34.13;18.98;;;6.40;93.90;;;;;;5120004;28;20112;-66
2021/12/28 01:00:08;;;;;;;28.27;17.23;;;6.50;94.00;;;;;;5114425;28;20050;-67
2021/12/28 01:02:34;;;;;;;33.58;18.45;;;6.50;94.00;;;;;;5123006;28;20048;-66
2021/12/28 01:04:59;;;;;;;24.40;18.13;;;6.50;93.90;;;;;;5109375;28;20099;-67
2021/12/28 01:07:25;;;;;;;45.58;18.35;;;6.50;93.90;;;;;;5123336;27;20189;-66
2021/12/28 01:09:51;;;;;;;74.45;21.05;;;6.50;93.80;;;;;;5127032;27;20055;-66
2021/12/28 01:12:16;;;;;;;57.80;18.75;;;6.50;93.80;;;;;;5117644;27;20547;-66
2021/12/28 01:14:42;;;;;;;196.00;30.65;;;6.60;93.90;;;;;;5132898;27;20035;-66
2021/12/28 01:17:08;;;;;;;33.67;19.48;;;6.50;93.90;;;;;;5133732;27;20062;-66
2021/12/28 01:19:34;;;;;;;37.20;19.83;;;6.50;93.90;;;;;;5133957;27;20047;-66
2021/12/28 01:22:01;;;;;;;30.73;18.80;;;6.60;93.90;;;;;;5113439;27;20146;-67
2021/12/28 01:24:28;;;;;;;41.03;19.92;;;6.60;93.90;;;;;;5133950;27;20062;-66
2021/12/28 01:26:54;;;;;;;60.55;21.10;;;6.60;93.90;;;;;;5132326;27;20039;-66
2021/12/28 01:29:20;;;;;;;88.72;23.10;;;6.60;93.90;;;;;;5112405;28;20059;-67
2021/12/28 01:31:46;;;;;;;146.73;25.90;;;6.60;93.90;;;;;;5113508;27;20083;-66
2021/12/28 01:34:12;;;;;;;74.53;20.48;;;6.60;93.90;;;;;;5113066;28;20151;-66
2021/12/28 01:36:38;;;;;;;91.97;23.33;;;6.60;93.90;;;;;;5112740;28;20532;-66
2021/12/28 01:39:05;;;;;;;345.20;37.08;;;6.60;93.80;;;;;;5118002;27;20039;-66
2021/12/28 01:41:32;;;;;;;144.05;24.10;;;6.60;93.90;;;;;;5133096;27;20099;-66
2021/12/28 01:44:01;;;;;;;89.47;21.35;;;6.60;93.90;;;;;;5133192;27;20043;-66
2021/12/28 01:46:28;;;;;;;110.30;25.63;;;6.60;94.00;;;;;;5127619;27;20131;-66
2021/12/28 01:48:53;;;;;;;45.42;20.95;;;6.60;94.00;;;;;;5114878;27;20140;-66
2021/12/28 01:51:21;;;;;;;99.97;22.38;;;6.60;94.00;;;;;;5127519;27;20666;-66
2021/12/28 01:53:49;;;;;;;72.20;23.45;;;6.60;94.00;;;;;;5112220;27;20461;-66
2021/12/28 01:56:22;;;;;;;84.45;21.88;;;6.60;93.90;;;;;;5112610;28;20043;-67
2021/12/28 01:58:48;;;;;;;70.88;21.77;;;6.70;93.90;;;;;;5123470;27;20046;-66
2021/12/28 02:01:15;;;;;;;111.00;22.27;;;6.70;93.90;;;;;;5112170;28;20446;-66
2021/12/28 02:03:41;;;;;;;36.13;20.20;;;6.60;93.80;;;;;;5125105;27;20105;-66
2021/12/28 02:06:08;;;;;;;109.80;23.77;;;6.70;93.80;;;;;;5112322;27;20042;-67
2021/12/28 02:08:34;;;;;;;41.50;19.67;;;6.70;93.80;;;;;;5114025;27;20070;-67
2021/12/28 02:11:01;;;;;;;76.13;19.58;;;6.60;93.80;;;;;;5126826;27;20032;-66
2021/12/28 02:13:27;;;;;;;54.15;20.23;;;6.70;93.80;;;;;;5132070;27;20518;-66
2021/12/28 02:15:54;;;;;;;41.72;19.90;;;6.70;93.80;;;;;;5130869;27;20056;-66
2021/12/28 02:18:22;;;;;;;58.72;19.50;;;6.60;93.80;;;;;;5122443;27;20041;-66
2021/12/28 02:20:49;;;;;;;137.68;23.95;;;6.70;93.80;;;;;;5132054;27;20133;-66
2021/12/28 02:23:15;;;;;;;35.95;19.35;;;6.70;93.80;;;;;;5131131;27;20117;-67
2021/12/28 02:25:43;;;;;;;44.40;19.42;;;6.70;93.80;;;;;;5132278;27;20035;-67
2021/12/28 02:28:10;;;;;;;45.67;20.33;;;6.70;93.90;;;;;;5129768;27;20662;-67
2021/12/28 02:30:38;;;;;;;140.55;26.42;;;6.70;93.90;;;;;;5118848;27;20054;-67
2021/12/28 02:33:05;;;;;;;43.10;20.00;;;6.70;94.00;;;;;;5104115;27;20046;-66
2021/12/28 02:35:31;;;;;;;80.13;21.08;;;6.70;94.10;;;;;;5113286;27;20040;-67
2021/12/28 02:37:57;;;;;;;50.33;20.42;;;6.70;94.10;;;;;;5121778;27;20039;-66
2021/12/28 02:40:27;;;;;;;46.97;19.85;;;6.80;94.20;;;;;;5132221;27;20043;-67
2021/12/28 02:42:53;;;;;;;44.95;19.63;;;6.80;94.20;;;;;;5098306;28;20393;-67
2021/12/28 02:45:28;;;;;;;43.20;21.45;;;6.90;94.20;;;;;;5125357;27;20578;-66
2021/12/28 02:47:54;;;;;;;53.08;20.77;;;6.90;94.20;;;;;;5131429;27;20051;-67
2021/12/28 02:50:24;;;;;;;51.50;22.13;;;6.90;94.20;;;;;;5120929;27;20035;-66
2021/12/28 02:52:50;;;;;;;54.53;20.63;;;6.90;94.30;;;;;;5129651;27;20043;-66
2021/12/28 02:55:19;;;;;;;40.15;19.92;;;6.90;94.20;;;;;;5114714;27;20043;-67
2021/12/28 02:57:57;;;;;;;44.30;19.13;;;6.90;94.20;;;;;;5111156;28;20027;-67
2021/12/28 03:00:45;;;;;;;50.83;20.23;;;7.00;94.20;;;;;;5110964;27;20043;-66
2021/12/28 03:03:16;;;;;;;47.15;20.50;;;7.00;94.10;;;;;;5111207;28;20044;-66
2021/12/28 03:05:44;;;;;;;39.83;20.43;;;6.90;94.10;;;;;;5126072;27;20044;-67
2021/12/28 03:08:11;;;;;;;48.33;20.00;;;6.90;94.10;;;;;;5118586;27;20486;-66
2021/12/28 03:10:38;;;;;;;48.25;20.38;;;6.90;94.10;;;;;;5115681;27;20110;-66
2021/12/28 03:13:05;;;;;;;47.38;19.35;;;7.00;94.10;;;;;;5125791;27;20122;-66
2021/12/28 03:15:31;;;;;;;37.47;20.52;;;6.90;94.00;;;;;;5125617;27;20103;-66
2021/12/28 03:17:57;;;;;;;40.95;19.02;;;7.00;93.90;;;;;;5120961;27;20031;-67
2021/12/28 03:20:23;;;;;;;29.88;16.95;;;6.90;93.90;;;;;;5110848;28;20465;-67
2021/12/28 03:22:49;;;;;;;35.67;18.75;;;6.90;93.90;;;;;;5118387;27;20046;-67
2021/12/28 03:25:15;;;;;;;31.40;17.85;;;7.00;93.80;;;;;;5131234;27;20032;-66
2021/12/28 03:27:42;;;;;;;33.60;17.50;;;6.90;93.90;;;;;;5131221;27;20112;-67
2021/12/28 03:30:10;;;;;;;41.67;19.30;;;6.90;93.90;;;;;;5093443;28;20051;-66
2021/12/28 03:32:36;;;;;;;33.65;16.75;;;6.90;93.90;;;;;;5111859;27;20040;-66
2021/12/28 03:35:03;;;;;;;38.28;18.25;;;7.00;93.90;;;;;;5127922;27;20043;-66
2021/12/28 03:37:33;;;;;;;37.83;17.20;;;7.00;93.90;;;;;;5129533;27;20046;-66
2021/12/28 03:39:59;;;;;;;33.40;16.20;;;7.00;93.90;;;;;;5130868;27;20047;-67
2021/12/28 03:42:25;;;;;;;40.53;16.98;;;6.90;93.80;;;;;;5123185;27;20043;-66
2021/12/28 03:44:52;;;;;;;49.88;17.88;;;7.00;93.80;;;;;;5118154;27;20035;-66
2021/12/28 03:47:17;;;;;;;40.33;18.45;;;6.90;93.70;;;;;;5107726;27;20051;-67
2021/12/28 03:49:43;;;;;;;29.77;17.42;;;6.90;93.70;;;;;;5111937;27;20047;-67
2021/12/28 03:52:09;;;;;;;47.33;18.58;;;6.90;93.80;;;;;;5117225;27;20043;-66
2021/12/28 03:54:35;;;;;;;41.17;18.90;;;6.90;93.70;;;;;;5127686;27;20091;-66
2021/12/28 03:57:02;;;;;;;34.38;18.13;;;6.90;93.80;;;;;;5129603;27;20074;-67
2021/12/28 03:59:27;;;;;;;39.05;17.45;;;6.90;93.80;;;;;;5130380;27;20039;-67
2021/12/28 04:01:53;;;;;;;44.53;18.25;;;6.90;93.80;;;;;;5119352;27;20548;-67
2021/12/28 04:04:19;;;;;;;53.83;19.05;;;7.00;93.80;;;;;;5111042;28;20071;-66
2021/12/28 04:06:44;;;;;;;49.92;17.48;;;6.90;93.90;;;;;;5129426;27;20061;-67
2021/12/28 04:09:12;;;;;;;46.45;17.45;;;7.00;94.00;;;;;;5129894;27;20491;-68
2021/12/28 04:11:39;;;;;;;41.90;18.15;;;7.00;93.90;;;;;;5130157;27;20043;-67
2021/12/28 04:14:06;;;;;;;50.08;19.27;;;7.00;93.90;;;;;;5129585;27;20035;-66
2021/12/28 04:16:33;;;;;;;46.65;18.60;;;7.00;94.00;;;;;;5129895;27;20092;-66
2021/12/28 04:19:00;;;;;;;36.08;18.65;;;7.00;94.00;;;;;;5125561;27;20040;-67
2021/12/28 04:21:25;;;;;;;45.47;18.98;;;7.00;94.00;;;;;;5127425;27;20042;-66
2021/12/28 04:23:51;;;;;;;42.10;17.92;;;7.00;93.90;;;;;;5121867;27;20028;-66
2021/12/28 04:26:18;;;;;;;42.78;18.88;;;7.00;94.00;;;;;;5130033;27;20043;-66
2021/12/28 04:28:43;;;;;;;41.45;19.25;;;7.00;93.90;;;;;;5118362;27;20051;-66
2021/12/28 04:31:10;;;;;;;38.35;17.92;;;7.00;93.80;;;;;;5092521;27;20131;-67
2021/12/28 04:33:37;;;;;;;48.50;18.98;;;7.00;93.80;;;;;;5128272;27;20035;-67
2021/12/28 04:36:09;;;;;;;38.38;17.63;;;7.00;93.80;;;;;;5129400;28;20104;-67
2021/12/28 04:38:35;;;;;;;;;;;7.00;93.80;;;;;;5130186;28;20047;-66
2021/12/28 04:41:01;;;;;;;31.60;15.13;;;6.90;93.70;;;;;;5131147;27;20298;-67
2021/12/28 04:43:27;;;;;;;36.72;16.17;;;6.90;93.80;;;;;;5101500;28;20453;-66
2021/12/28 04:45:52;;;;;;;34.72;16.55;;;6.90;93.80;;;;;;5096497;28;20040;-67
2021/12/28 04:48:18;;;;;;;36.53;17.70;;;6.90;93.70;;;;;;5120261;27;20091;-67
2021/12/28 04:50:45;;;;;;;24.48;14.73;;;6.90;93.70;;;;;;5134107;27;20158;-66
2021/12/28 04:53:12;;;;;;;27.75;13.85;;;6.90;93.60;;;;;;5120655;27;20039;-66
2021/12/28 04:55:40;;;;;;;34.42;14.32;;;6.90;93.60;;;;;;5134002;27;20122;-66
2021/12/28 04:58:06;;;;;;;33.88;15.07;;;6.90;93.60;;;;;;5106074;27;20070;-66
2021/12/28 05:00:32;;;;;;;44.72;15.35;;;6.90;93.60;;;;;;5100486;27;20047;-66
2021/12/28 05:02:59;;;;;;;27.45;13.82;;;6.90;93.60;;;;;;5134215;27;20183;-66
2021/12/28 05:05:24;;;;;;;29.40;13.43;;;6.90;93.60;;;;;;5115734;27;20540;-66
2021/12/28 05:07:50;;;;;;;35.25;14.75;;;6.90;93.60;;;;;;5120105;27;20067;-66
2021/12/28 05:10:16;;;;;;;26.50;13.23;;;6.90;93.60;;;;;;5125209;27;20609;-66
2021/12/28 05:12:42;;;;;;;30.27;14.15;;;6.90;93.60;;;;;;5113529;28;20412;-66
2021/12/28 05:15:09;;;;;;;30.52;15.18;;;6.90;93.60;;;;;;5113424;27;20035;-66
2021/12/28 05:17:35;;;;;;;26.88;12.60;;;6.90;93.50;;;;;;5125212;27;20118;-66
2021/12/28 05:20:01;;;;;;;34.55;13.23;;;6.90;93.50;;;;;;5133990;27;20126;-66
2021/12/28 05:22:26;;;;;;;27.30;13.68;;;6.90;93.50;;;;;;5121275;27;20042;-66
2021/12/28 05:24:52;;;;;;;31.70;12.70;;;6.90;93.40;;;;;;5095289;28;20047;-66
2021/12/28 05:27:18;;;;;;;25.33;12.35;;;6.80;93.40;;;;;;5094750;28;20047;-66
2021/12/28 05:29:43;;;;;;;23.80;12.40;;;6.80;93.40;;;;;;5112665;28;20036;-66
2021/12/28 05:32:09;;;;;;;30.90;12.55;;;6.80;93.30;;;;;;5111962;27;20085;-66
2021/12/28 05:34:35;;;;;;;26.50;11.90;;;6.80;93.40;;;;;;5133853;27;20050;-66
2021/12/28 05:37:01;;;;;;;24.02;11.38;;;6.80;93.40;;;;;;5133307;27;20039;-67
2021/12/28 05:39:26;;;;;;;32.35;13.23;;;6.80;93.40;;;;;;5125695;27;20039;-66
2021/12/28 05:41:52;;;;;;;30.83;12.95;;;6.80;93.40;;;;;;5132820;27;20084;-66
2021/12/28 05:44:18;;;;;;;30.08;13.18;;;6.80;93.40;;;;;;5127523;27;20479;-66
2021/12/28 05:46:45;;;;;;;31.60;11.93;;;6.80;93.30;;;;;;5132981;27;20039;-65
2021/12/28 05:49:10;;;;;;;32.67;10.60;;;6.70;93.40;;;;;;5132123;27;20071;-66
2021/12/28 05:51:36;;;;;;;25.52;10.82;;;6.70;93.50;;;;;;5117181;27;20078;-66
2021/12/28 05:54:03;;;;;;;22.95;11.25;;;6.80;93.40;;;;;;5122070;27;20047;-66
2021/12/28 05:56:28;;;;;;;21.88;13.02;;;6.80;93.40;;;;;;5132982;27;20100;-66
2021/12/28 05:58:54;;;;;;;20.65;10.30;;;6.80;93.40;;;;;;5114307;27;20047;-66
2021/12/28 06:01:19;;;;;;;24.55;10.48;;;6.80;93.40;;;;;;5131845;27;20096;-66
2021/12/28 06:03:45;;;;;;;30.98;11.25;;;6.80;93.30;;;;;;5119886;27;20035;-67
2021/12/28 06:06:11;;;;;;;20.48;9.43;;;6.80;93.30;;;;;;5114643;27;20088;-67
2021/12/28 06:08:36;;;;;;;19.55;9.38;;;6.90;93.30;;;;;;5132443;27;20035;-67
2021/12/28 06:11:07;;;;;;;25.88;11.90;;;6.90;93.30;;;;;;5114450;27;20039;-67
2021/12/28 06:13:32;;;;;;;21.92;9.27;;;6.90;93.20;;;;;;5113380;27;20051;-67
2021/12/28 06:15:59;;;;;;;30.15;11.30;;;6.90;93.30;;;;;;5105228;27;20039;-67
2021/12/28 06:18:24;;;;;;;23.52;10.02;;;6.90;93.20;;;;;;5131858;27;20042;-67
2021/12/28 06:20:50;;;;;;;24.25;11.88;;;6.90;93.20;;;;;;5132606;27;20407;-66
2021/12/28 06:23:17;;;;;;;16.77;9.07;;;6.90;93.10;;;;;;5132431;27;20046;-66
2021/12/28 06:25:43;;;;;;;23.20;9.23;;;6.90;93.10;;;;;;5114049;27;20058;-66
2021/12/28 06:28:09;;;;;;;23.77;9.15;;;6.90;93.10;;;;;;5113951;27;20047;-66
2021/12/28 06:30:35;;;;;;;23.88;9.88;;;6.90;93.10;;;;;;5131967;27;20099;-66
2021/12/28 06:33:01;;;;;;;27.73;8.93;;;6.90;93.10;;;;;;5132406;27;20054;-66
2021/12/28 06:35:27;;;;;;;24.10;9.20;;;6.90;93.10;;;;;;5131971;27;20031;-66
2021/12/28 06:37:52;;;;;;;25.70;8.85;;;6.90;93.10;;;;;;5119455;27;20048;-66
2021/12/28 06:40:18;;;;;;;22.17;9.25;;;6.90;93.00;;;;;;5115226;27;20487;-66
2021/12/28 06:42:43;;;;;;;24.80;9.20;;;6.90;93.00;;;;;;5118725;27;20038;-66
2021/12/28 06:45:09;;;;;;;20.48;9.07;;;6.90;93.10;;;;;;5113214;27;20043;-66
2021/12/28 06:47:35;;;;;;;21.98;7.97;;;7.00;93.00;;;;;;5132138;27;20425;-66
2021/12/28 06:50:02;;;;;;;21.73;8.70;;;7.00;93.00;;;;;;5116629;27;20036;-66
2021/12/28 06:52:28;;;;;;;21.33;8.32;;;7.00;93.00;;;;;;5092776;28;20100;-66
2021/12/28 06:54:53;;;;;;;30.95;8.73;;;7.00;93.00;;;;;;5127990;27;20441;-67
2021/12/28 06:57:21;;;;;;;25.33;8.57;;;7.00;92.90;;;;;;5113454;27;20415;-66
2021/12/28 06:59:47;;;;;;;16.88;7.97;;;7.00;92.90;;;;;;5113097;27;20472;-67
2021/12/28 07:02:14;;;;;;;22.35;9.52;;;7.00;92.90;;;;;;5131728;27;20134;-66
2021/12/28 07:04:41;;;;;;;21.45;9.00;;;7.00;92.90;;;;;;5122144;27;20047;-66
2021/12/28 07:07:07;;;;;;;23.50;8.48;;;7.00;92.90;;;;;;5093194;28;20430;-66
2021/12/28 07:09:33;;;;;;;22.58;7.95;;;7.00;92.90;;;;;;5119890;27;20088;-67
2021/12/28 07:12:00;;;;;;;21.38;8.65;;;7.00;92.90;;;;;;5129332;27;20043;-66
2021/12/28 07:14:25;;;;;;;23.50;7.32;;;7.00;92.90;;;;;;5130865;27;20061;-65
2021/12/28 07:16:51;;;;;;;22.52;7.82;;;7.10;92.90;;;;;;5113212;27;20086;-67
2021/12/28 07:19:16;;;;;;;20.85;8.15;;;7.10;92.90;;;;;;5110947;28;20420;-69
2021/12/28 07:21:42;;;;;;;22.75;8.98;;;7.20;93.10;;;;;;5110879;28;20039;-67
2021/12/28 07:24:09;;;;;;;24.23;8.63;;;7.60;93.20;;;;;;5125319;27;20043;-68
2021/12/28 07:26:36;;;;;;;23.17;7.22;;;7.60;92.70;;;;;;5130824;27;20047;-68
2021/12/28 07:29:03;;;;;;;25.30;7.90;;;7.60;92.30;;;;;;5130557;27;20459;-68
2021/12/28 07:31:29;;;;;;;28.17;9.63;;;7.50;92.10;;;;;;5131336;27;20043;-68
2021/12/28 07:33:54;;;;;;;26.35;8.05;;;7.50;92.10;;;;;;5131025;27;20092;-68
2021/12/28 07:36:20;;;;;;;23.02;7.78;;;7.40;92.00;;;;;;5131159;27;20039;-67
2021/12/28 07:38:46;;;;;;;24.45;7.80;;;7.30;92.10;;;;;;5130266;27;20050;-67
2021/12/28 07:41:12;;;;;;;20.23;9.35;;;7.30;92.10;;;;;;5130423;27;20394;-67
2021/12/28 07:43:38;;;;;;;19.15;7.22;;;7.20;92.20;;;;;;5130020;27;20043;-67
2021/12/28 07:46:04;;;;;;;22.20;7.43;;;7.20;92.20;;;;;;5122687;27;20078;-67
2021/12/28 07:48:30;;;;;;;25.88;8.95;;;7.20;92.30;;;;;;5091782;28;20479;-67
2021/12/28 07:50:56;;;;;;;21.75;7.40;;;7.10;92.30;;;;;;5110466;28;20048;-68
2021/12/28 07:53:22;;;;;;;21.23;7.13;;;7.20;92.40;;;;;;5110355;28;20453;-67
2021/12/28 07:55:47;;;;;;;26.10;8.43;;;7.10;92.40;;;;;;5125279;27;20039;-67
2021/12/28 07:58:13;;;;;;;20.58;7.80;;;7.10;92.40;;;;;;5129338;27;20498;-68
2021/12/28 08:00:39;;;;;;;20.42;6.80;;;7.10;92.50;;;;;;5128797;27;20059;-67
2021/12/28 08:03:05;;;;;;;21.23;6.60;;;7.10;92.60;;;;;;5130240;27;20043;-68
2021/12/28 08:05:36;;;;;;;21.77;6.60;;;7.10;92.60;;;;;;5111489;27;20460;-67
2021/12/28 08:08:02;;;;;;;18.33;6.68;;;7.20;92.60;;;;;;5129769;27;20050;-67
2021/12/28 08:10:28;;;;;;;17.25;7.00;;;7.10;92.70;;;;;;5119172;27;20043;-67
2021/12/28 08:12:56;;;;;;;26.27;6.65;;;7.20;92.90;;;;;;5129500;27;20444;-67
2021/12/28 08:15:24;;;;;;;24.15;7.90;;;7.20;92.80;;;;;;5111285;28;20124;-67
2021/12/28 08:17:49;;;;;;;18.05;6.50;;;7.20;93.00;;;;;;5130349;27;20054;-68
2021/12/28 08:20:16;;;;;;;25.20;6.93;;;7.20;92.90;;;;;;5130448;27;20043;-67
2021/12/28 08:22:44;;;;;;;24.05;7.10;;;7.20;92.90;;;;;;5129429;27;20038;-68
2021/12/28 08:25:12;;;;;;;19.88;6.43;;;7.30;93.00;;;;;;5130235;27;20072;-68
2021/12/28 08:27:38;;;;;;;18.95;6.95;;;7.30;93.10;;;;;;5129664;27;20500;-68
2021/12/28 08:30:06;;;;;;;20.02;6.53;;;7.30;93.00;;;;;;5129992;27;20062;-67
2021/12/28 08:32:31;;;;;;;19.85;6.50;;;7.30;92.90;;;;;;5111429;28;20043;-68
2021/12/28 08:34:57;;;;;;;20.42;6.57;;;7.30;93.00;;;;;;5130321;27;20048;-68
2021/12/28 08:37:23;;;;;;;18.80;5.72;;;7.30;92.90;;;;;;5129817;28;20043;-67
2021/12/28 08:39:48;;;;;;;19.75;6.70;;;7.30;92.90;;;;;;5112008;28;20047;-68
2021/12/28 08:42:14;;;;;;;17.92;7.07;;;7.30;92.90;;;;;;5129919;28;20035;-68
2021/12/28 08:44:40;;;;;;;16.10;6.68;;;7.30;92.90;;;;;;5130313;28;20113;-68
2021/12/28 08:47:05;;;;;;;18.67;6.30;;;7.30;92.90;;;;;;5130309;28;20047;-68
2021/12/28 08:49:31;;;;;;;21.02;7.63;;;7.30;93.00;;;;;;5129547;28;20039;-67
2021/12/28 08:51:57;;;;;;;21.20;7.03;;;7.40;92.80;;;;;;5111271;28;20040;-68
2021/12/28 08:54:22;;;;;;;17.75;5.93;;;7.40;92.80;;;;;;5130510;28;20956;-68
2021/12/28 08:56:50;;;;;;;14.40;6.40;;;7.40;92.80;;;;;;5111785;28;20042;-68
2021/12/28 08:59:16;;;;;;;20.17;6.45;;;7.40;92.70;;;;;;5129896;28;20105;-67
2021/12/28 09:01:42;;;;;;;18.75;5.90;;;7.40;92.70;;;;;;5094112;28;20074;-68
2021/12/28 09:04:08;;;;;;;15.60;6.13;;;7.40;92.80;;;;;;5129730;28;20043;-67
2021/12/28 09:06:34;;;;;;;22.52;6.68;;;7.40;93.00;;;;;;5129737;28;20039;-68
2021/12/28 09:08:59;;;;;;;25.05;7.88;;;7.40;93.00;;;;;;5128546;28;20305;-67
2021/12/28 09:11:25;;;;;;;22.77;6.57;;;7.40;93.10;;;;;;5130086;28;20027;-67
2021/12/28 09:13:51;;;;;;;22.67;5.35;;;7.40;93.20;;;;;;5130067;28;20126;-67
2021/12/28 09:16:17;;;;;;;22.13;6.60;;;7.50;93.10;;;;;;5130092;28;20053;-68
2021/12/28 09:18:43;;;;;;;20.38;6.65;;;7.50;93.10;;;;;;5130174;28;20043;-67
2021/12/28 09:21:09;;;;;;;26.05;9.70;;;7.50;93.20;;;;;;5129346;28;20035;-67
2021/12/28 09:23:37;;;;;;;29.65;9.23;;;7.60;93.20;;;;;;5129861;28;20037;-67
2021/12/28 09:26:04;;;;;;;32.40;12.85;;;7.60;93.30;;;;;;5128747;27;20160;-67
2021/12/28 09:28:29;;;;;;;36.00;11.25;;;7.60;93.30;;;;;;5133539;27;20110;-67
2021/12/28 09:30:55;;;;;;;23.00;9.25;;;7.60;93.40;;;;;;5133524;27;20122;-67
2021/12/28 09:33:21;;;;;;;20.30;7.95;;;7.60;93.40;;;;;;5104077;28;20043;-68
2021/12/28 09:35:47;;;;;;;22.98;6.68;;;7.60;93.40;;;;;;5113221;28;20130;-67
2021/12/28 09:38:13;;;;;;;22.90;8.15;;;7.50;93.60;;;;;;5094413;28;20104;-67
2021/12/28 09:40:39;;;;;;;17.02;6.65;;;7.50;93.50;;;;;;5113003;28;20043;-68
2021/12/28 09:43:07;;;;;;;21.75;6.82;;;7.50;93.70;;;;;;5113235;27;20563;-67
2021/12/28 09:45:33;;;;;;;18.48;6.25;;;7.50;93.50;;;;;;5132660;27;20039;-68
2021/12/28 09:47:59;;;;;;;22.90;6.40;;;7.60;93.50;;;;;;5131546;27;20039;-67
2021/12/28 09:50:25;;;;;;;13.05;5.72;;;7.50;93.60;;;;;;5132676;27;20169;-68
2021/12/28 09:52:51;;;;;;;17.05;6.38;;;7.60;93.60;;;;;;5131858;27;20043;-68
2021/12/28 09:55:21;;;;;;;18.88;6.40;;;7.60;93.60;;;;;;5132884;27;20043;-68
2021/12/28 09:57:47;;;;;;;19.63;6.30;;;7.60;93.60;;;;;;5114137;27;20092;-68
2021/12/28 10:00:14;;;;;;;20.27;8.10;;;7.60;93.60;;;;;;5114439;27;20563;-68
2021/12/28 10:02:40;;;;;;;17.35;6.43;;;7.60;93.60;;;;;;5132888;27;20051;-68
2021/12/28 10:05:07;;;;;;;14.85;6.32;;;7.60;93.70;;;;;;5132946;27;20049;-68
2021/12/28 10:07:42;;;;;;;18.33;7.97;;;7.60;93.70;;;;;;5132748;27;20237;-68
2021/12/28 10:10:08;;;;;;;23.48;7.22;;;7.70;93.60;;;;;;5132945;27;20054;-68
2021/12/28 10:12:36;;;;;;;26.60;6.68;;;7.60;93.70;;;;;;5132694;27;20043;-67
2021/12/28 10:15:06;;;;;;;26.08;9.13;;;7.60;93.70;;;;;;5112415;28;20031;-68
2021/12/28 10:17:34;;;;;;;18.63;6.97;;;7.70;93.80;;;;;;5117183;27;20031;-68
2021/12/28 10:20:10;;;;;;;19.95;6.18;;;7.70;93.90;;;;;;5132581;27;20051;-68
2021/12/28 10:22:37;;;;;;;16.88;7.80;;;7.70;93.90;;;;;;5132654;27;20073;-68
2021/12/28 10:25:14;;;;;;;17.77;6.57;;;7.80;93.80;;;;;;5133101;27;20095;-68
2021/12/28 10:27:46;;;;;;;17.10;6.80;;;7.80;93.90;;;;;;5131931;27;20035;-68
2021/12/28 10:30:28;;;;;;;17.20;6.97;;;7.80;93.90;;;;;;5114228;27;20035;-68
2021/12/28 10:32:59;;;;;;;15.32;6.45;;;7.90;93.90;;;;;;5113152;27;20487;-67
2021/12/28 10:35:28;;;;;;;14.30;6.18;;;7.90;93.90;;;;;;5132519;27;20039;-67
2021/12/28 10:38:00;;;;;;;18.83;6.20;;;7.90;93.90;;;;;;5131157;27;20095;-67
2021/12/28 10:40:36;;;;;;;;;;;7.90;93.90;;;;;;5132302;27;20051;-68
2021/12/28 10:43:16;;;;;;;11.85;5.80;;;7.90;93.90;;;;;;5131910;27;19920;-68
2021/12/28 10:45:45;;;;;;;17.23;6.03;;;7.90;94.20;;;;;;5132562;27;20098;-68
2021/12/28 10:48:15;;;;;;;17.25;6.07;;;7.90;94.10;;;;;;5131777;27;20031;-67
2021/12/28 10:51:07;;;;;;;14.35;6.00;;;8.00;94.10;;;;;;5132179;27;20546;-67
2021/12/28 10:53:55;;;;;;;16.05;6.88;;;8.00;94.10;;;;;;5131578;27;20053;-68
2021/12/28 10:56:22;;;;;;;13.30;5.20;;;8.00;94.10;;;;;;5131549;27;20132;-68
2021/12/28 10:58:49;;;;;;;11.88;5.13;;;8.00;94.00;;;;;;5131568;27;20031;-67
2021/12/28 11:01:19;;;;;;;10.27;5.60;;;8.00;94.00;;;;;;5130272;27;20140;-67
2021/12/28 11:03:51;;;;;;;7.00;4.68;;;8.10;94.00;;;;;;5130683;27;20579;-68
2021/12/28 11:06:32;;;;;;;10.05;4.60;;;8.10;94.10;;;;;;5131485;27;20050;-68
2021/12/28 11:09:10;;;;;;;8.93;5.75;;;8.10;94.00;;;;;;5130754;27;20518;-67
2021/12/28 11:11:38;;;;;;;5.75;4.20;;;8.10;94.10;;;;;;5131217;27;20495;-68
2021/12/28 11:14:10;;;;;;;6.25;4.35;;;8.10;94.10;;;;;;5130396;27;20043;-67
2021/12/28 11:16:37;;;;;;;9.38;4.75;;;8.10;94.10;;;;;;5131543;27;20047;-68
2021/12/28 11:19:06;;;;;;;10.38;5.15;;;8.10;94.10;;;;;;5130821;27;20488;-68
2021/12/28 11:21:38;;;;;;;7.60;3.90;;;8.10;94.10;;;;;;5118836;27;20036;-68
2021/12/28 11:24:06;;;;;;;;;;;8.20;94.20;;;;;;5121283;27;20060;-66
2021/12/28 11:26:37;;;;;;;5.82;3.85;;;8.20;94.20;;;;;;5130377;27;19919;-67
2021/12/28 11:29:09;;;;;;;4.03;3.15;;;8.30;94.30;;;;;;5127573;27;20118;-66
2021/12/28 11:31:41;;;;;;;8.20;3.33;;;8.40;94.20;;;;;;5124437;27;20036;-66
2021/12/28 11:34:23;;;;;;;7.03;3.47;;;8.40;94.10;;;;;;5121265;27;20031;-66
2021/12/28 11:36:54;;;;;;;9.32;3.60;;;8.40;94.10;;;;;;5129943;27;20027;-66
2021/12/28 11:39:27;;;;;;;6.80;3.08;;;8.40;94.00;;;;;;5124597;27;20046;-66
2021/12/28 11:41:53;;;;;;;4.93;3.25;;;8.40;94.00;;;;;;5129496;27;20046;-66
2021/12/28 11:44:20;;;;;;;9.68;3.28;;;8.40;94.00;;;;;;5129514;27;20566;-66
2021/12/28 11:46:47;;;;;;;4.22;3.10;;;8.40;93.90;;;;;;5116152;27;20086;-66
2021/12/28 11:49:14;;;;;;;4.35;3.42;;;8.40;94.00;;;;;;5116179;27;20035;-66
2021/12/28 11:51:42;;;;;;;6.88;3.92;;;8.40;94.10;;;;;;5130349;27;20047;-66
2021/12/28 11:54:11;;;;;;;6.25;3.60;;;8.40;94.10;;;;;;5107377;27;20052;-65
2021/12/28 11:56:40;;;;;;;5.10;3.10;;;8.40;94.10;;;;;;5112688;27;20495;-66
2021/12/28 11:59:28;;;;;;;4.70;3.10;;;8.40;94.10;;;;;;5111177;27;20502;-66
2021/12/28 12:02:02;;;;;;;6.60;3.03;;;8.50;94.00;;;;;;5121178;27;20130;-66
2021/12/28 12:04:34;;;;;;;4.20;3.20;;;8.50;94.10;;;;;;5111341;27;20444;-66
2021/12/28 12:07:12;;;;;;;5.93;3.05;;;8.50;94.00;;;;;;5122547;27;20039;-66
2021/12/28 12:09:50;;;;;;;8.00;3.40;;;8.50;94.00;;;;;;5112075;27;20392;-65
2021/12/28 12:12:43;;;;;;;7.72;3.47;;;8.50;94.10;;;;;;5121416;27;20760;-66
2021/12/28 12:15:15;;;;;;;4.72;3.03;;;8.50;94.20;;;;;;5122121;27;20061;-66
2021/12/28 12:17:45;;;;;;;5.07;3.50;;;8.50;94.20;;;;;;5129704;27;20051;-66
2021/12/28 12:20:19;;;;;;;6.50;3.92;;;8.60;94.20;;;;;;5122345;27;20080;-66
2021/12/28 12:23:12;;;;;;;8.98;4.15;;;8.60;94.20;;;;;;5128375;27;20043;-65
2021/12/28 12:26:03;;;;;;;7.30;4.57;;;8.50;94.10;;;;;;5123373;27;20050;-66
2021/12/28 12:28:38;;;;;;;5.97;4.32;;;8.50;94.30;;;;;;5127288;27;20471;-66
2021/12/28 12:31:07;;;;;;;8.30;4.63;;;8.60;94.20;;;;;;5111301;27;20444;-63
2021/12/28 12:33:52;;;;;;;4.97;4.28;;;8.60;94.20;;;;;;5128592;27;20064;-64
2021/12/28 12:36:22;;;;;;;7.18;5.35;;;8.60;94.10;;;;;;5130204;27;20045;-63
2021/12/28 12:38:48;;;;;;;6.15;4.03;;;8.60;94.10;;;;;;5129360;28;20051;-64
2021/12/28 12:41:14;;;;;;;5.18;4.22;;;8.60;94.20;;;;;;5128613;28;20079;-64
2021/12/28 12:44:13;;;;;;;6.35;3.55;;;8.60;94.20;;;;;;5130053;28;20035;-64
2021/12/28 12:46:43;;;;;;;8.13;4.65;;;8.60;94.20;;;;;;5130411;28;20095;-65
2021/12/28 12:49:27;;;;;;;6.10;4.47;;;8.60;94.30;;;;;;5104873;28;20043;-64